createdAt,value
2019-01-03T00:01:33.661Z,103526.78
2019-01-03T00:04:27.758Z,103511.41
2019-01-03T00:07:15.311Z,103504.03
2019-01-03T00:10:02.077Z,103506.27
2019-01-03T00:12:59.741Z,103497.45
2019-01-03T00:15:45.188Z,103500.89
2019-01-03T00:18:45.779Z,103500.95
2019-01-03T00:21:38.645Z,103510.52
2019-01-03T00:24:38.757Z,103500.95
2019-01-03T00:27:34.248Z,103504.91
2019-01-03T00:30:28.833Z,103496.50
2019-01-03T00:33:29.061Z,103503.99
2019-01-03T00:36:32.642Z,103509.56
2019-01-03T00:39:24.679Z,103510.42
2019-01-03T00:42:11.986Z,103511.75
2019-01-03T00:44:58.936Z,103507.79
2019-01-03T00:47:45.992Z,103503.45
2019-01-03T00:50:32.946Z,103505.06
2019-01-03T00:53:20.020Z,103503.34
2019-01-03T00:56:06.735Z,103504.70
2019-01-03T00:58:49.878Z,103507.73
2019-01-03T01:01:53.446Z,103509.97
2019-01-03T01:04:40.625Z,103508.72
2019-01-03T01:07:27.293Z,103504.64
2019-01-03T01:10:27.792Z,103502.55
2019-01-03T01:13:14.864Z,103501.63
2019-01-03T01:16:02.043Z,103501.07
2019-01-03T01:19:05.032Z,103503.63
2019-01-03T01:21:51.907Z,103506.81
2019-01-03T01:24:46.911Z,103506.81
2019-01-03T01:27:50.351Z,103515.07
2019-01-03T01:30:34.368Z,103507.55
2019-01-03T01:33:25.769Z,103496.08
2019-01-03T01:36:16.933Z,103497.91
2019-01-03T01:39:05.371Z,103508.09
2019-01-03T01:42:02.709Z,103520.43
2019-01-03T01:44:55.621Z,103526.11
2019-01-03T01:47:43.946Z,103526.98
2019-01-03T01:50:29.296Z,103526.55
2019-01-03T01:53:16.056Z,103522.66
2019-01-03T01:56:02.984Z,103516.94
2019-01-03T01:58:57.477Z,103516.80
2019-01-03T02:01:56.146Z,103518.10
2019-01-03T02:04:34.259Z,103519.49
2019-01-03T02:07:37.903Z,103522.94
2019-01-03T02:10:44.349Z,103528.64
2019-01-03T02:13:31.125Z,103524.78
2019-01-03T02:16:18.999Z,103523.36
2019-01-03T02:19:05.918Z,103517.28
2019-01-03T02:21:57.240Z,103513.34
2019-01-03T02:24:48.754Z,103512.00
2019-01-03T02:27:35.720Z,103510.70
2019-01-03T02:30:34.670Z,103514.23
2019-01-03T02:33:23.013Z,103513.45
2019-01-03T02:36:14.300Z,103512.02
2019-01-03T02:39:01.248Z,103505.34
2019-01-03T02:41:48.426Z,103502.27
2019-01-03T02:44:54.668Z,103507.06
2019-01-03T02:48:01.002Z,103505.28
2019-01-03T02:51:03.954Z,103506.72
2019-01-03T02:53:50.063Z,103503.63
2019-01-03T02:56:41.538Z,103509.79
2019-01-03T02:59:36.051Z,103504.01
2019-01-03T03:02:24.432Z,103506.64
2019-01-03T03:05:12.849Z,103503.59
2019-01-03T03:07:59.548Z,103507.95
2019-01-03T03:10:51.192Z,103507.95
2019-01-03T03:13:45.535Z,103507.95
2019-01-03T03:16:30.986Z,103497.05
2019-01-03T03:19:18.106Z,103485.99
2019-01-03T03:22:06.499Z,103492.17
2019-01-03T03:24:53.613Z,103495.30
2019-01-03T03:27:40.539Z,103493.09
2019-01-03T03:30:31.794Z,103487.80
2019-01-03T03:33:23.927Z,103486.98
2019-01-03T03:36:11.076Z,103483.48
2019-01-03T03:38:42.530Z,103482.94
2019-01-03T03:41:22.706Z,103482.06
2019-01-03T03:44:23.347Z,103478.17
2019-01-03T03:47:26.854Z,103480.35
2019-01-03T03:50:21.066Z,103489.95
2019-01-03T03:53:09.392Z,103485.93
2019-01-03T03:55:50.693Z,103485.53
2019-01-03T03:58:42.056Z,103480.11
2019-01-03T04:01:33.527Z,103488.16
2019-01-03T04:04:24.692Z,103491.75
2019-01-03T04:07:16.161Z,103483.83
2019-01-03T04:10:03.010Z,103489.88
2019-01-03T04:12:45.633Z,103494.22
2019-01-03T04:15:32.672Z,103493.34
2019-01-03T04:18:19.485Z,103491.61
2019-01-03T04:21:16.613Z,103488.11
2019-01-03T04:24:07.742Z,103482.69
2019-01-03T04:27:14.265Z,103484.48
2019-01-03T04:30:00.923Z,103493.33
2019-01-03T04:32:47.508Z,103491.49
2019-01-03T04:35:35.928Z,103493.20
2019-01-03T04:38:22.709Z,103487.48
2019-01-03T04:41:08.743Z,103486.06
2019-01-03T04:44:04.501Z,103485.17
2019-01-03T04:47:08.143Z,103488.66
2019-01-03T04:49:59.619Z,103478.18
2019-01-03T04:52:50.892Z,103483.98
2019-01-03T04:55:39.244Z,103483.53
2019-01-03T04:58:27.426Z,103483.42
2019-01-03T05:01:55.426Z,103489.20
2019-01-03T05:04:42.582Z,103483.44
2019-01-03T05:07:34.121Z,103478.18
2019-01-03T05:10:20.955Z,103460.13
2019-01-03T05:13:07.963Z,103472.41
2019-01-03T05:15:59.345Z,103474.11
2019-01-03T05:18:46.131Z,103478.06
2019-01-03T05:21:32.890Z,103466.66
2019-01-03T05:24:23.969Z,103470.52
2019-01-03T05:27:10.924Z,103466.52
2019-01-03T05:30:02.079Z,103469.08
2019-01-03T05:33:05.655Z,103470.00
2019-01-03T05:35:53.973Z,103467.45
2019-01-03T05:38:41.005Z,103470.48
2019-01-03T05:41:38.251Z,103463.88
2019-01-03T05:44:25.107Z,103456.02
2019-01-03T05:47:12.261Z,103453.36
2019-01-03T05:50:09.546Z,103461.30
2019-01-03T05:53:07.847Z,103467.88
2019-01-03T05:55:55.747Z,103465.24
2019-01-03T05:58:46.845Z,103469.39
2019-01-03T06:01:33.937Z,103470.69
2019-01-03T06:04:31.165Z,103474.09
2019-01-03T06:07:18.054Z,103474.19
2019-01-03T06:10:21.354Z,103482.38
2019-01-03T06:13:20.687Z,103482.38
2019-01-03T06:16:18.127Z,103478.83
2019-01-03T06:19:05.098Z,103475.78
2019-01-03T06:21:51.905Z,103477.08
2019-01-03T06:24:43.104Z,103487.59
2019-01-03T06:27:30.110Z,103493.30
2019-01-03T06:30:36.579Z,103495.45
2019-01-03T06:33:27.987Z,103490.24
2019-01-03T06:36:15.071Z,103492.33
2019-01-03T06:39:02.985Z,103494.94
2019-01-03T06:42:09.620Z,103494.17
2019-01-03T06:44:58.788Z,103497.73
2019-01-03T06:47:45.830Z,103508.67
2019-01-03T06:50:52.128Z,103510.75
2019-01-03T06:53:55.810Z,103510.31
2019-01-03T06:56:47.400Z,103523.91
2019-01-03T06:59:34.689Z,103523.81
2019-01-03T07:02:21.667Z,103519.87
2019-01-03T07:05:10.049Z,103525.96
2019-01-03T07:07:58.847Z,103526.31
2019-01-03T07:10:57.342Z,103537.24
2019-01-03T07:13:47.072Z,103534.72
2019-01-03T07:16:34.012Z,103533.93
2019-01-03T07:19:20.928Z,103533.95
2019-01-03T07:22:08.338Z,103543.20
2019-01-03T07:24:55.320Z,103550.70
2019-01-03T07:27:42.534Z,103547.63
2019-01-03T07:30:29.227Z,103541.47
2019-01-03T07:33:16.314Z,103544.10
2019-01-03T07:36:03.107Z,103553.72
2019-01-03T07:38:57.430Z,103559.01
2019-01-03T07:41:44.614Z,103555.17
2019-01-03T07:44:28.053Z,103560.41
2019-01-03T07:47:25.205Z,103560.84
2019-01-03T07:50:22.543Z,103550.85
2019-01-03T07:53:16.985Z,103551.38
2019-01-03T07:56:04.294Z,103547.52
2019-01-03T07:58:55.382Z,103553.23
2019-01-03T08:01:59.119Z,103543.55
2019-01-03T08:04:45.821Z,103548.89
2019-01-03T08:07:33.054Z,103548.75
2019-01-03T08:10:16.437Z,103542.55
2019-01-03T08:13:04.989Z,103543.53
2019-01-03T08:15:59.532Z,103533.58
2019-01-03T08:19:03.222Z,103534.59
2019-01-03T08:21:57.481Z,103533.75
2019-01-03T08:24:45.313Z,103529.92
2019-01-03T08:27:39.778Z,103540.06
2019-01-03T08:30:29.216Z,103549.38
2019-01-03T08:33:15.962Z,103544.53
2019-01-03T08:36:03.095Z,103551.27
2019-01-03T08:38:54.255Z,103564.53
2019-01-03T08:41:48.172Z,103569.41
2019-01-03T08:44:36.480Z,103578.70
2019-01-03T08:47:28.048Z,103580.56
2019-01-03T08:50:22.281Z,103584.23
2019-01-03T08:53:22.905Z,103580.75
2019-01-03T08:56:23.416Z,103579.59
2019-01-03T08:59:10.582Z,103574.76
2019-01-03T09:01:57.787Z,103563.00
2019-01-03T09:04:46.433Z,103570.92
2019-01-03T09:07:53.159Z,103573.61
2019-01-03T09:10:56.398Z,103574.92
2019-01-03T09:13:36.192Z,103573.66
2019-01-03T09:16:24.674Z,103578.40
2019-01-03T09:19:25.290Z,103578.97
2019-01-03T09:22:16.510Z,103583.42
2019-01-03T09:25:06.259Z,103591.91
2019-01-03T09:27:49.753Z,103589.27
2019-01-03T09:30:40.951Z,103586.20
2019-01-03T09:33:32.310Z,103582.81
2019-01-03T09:36:19.435Z,103593.86
2019-01-03T09:39:06.210Z,103596.50
2019-01-03T09:41:53.344Z,103599.55
2019-01-03T09:44:40.724Z,103598.75
2019-01-03T09:47:10.251Z,103598.77
2019-01-03T09:49:40.193Z,103592.23
2019-01-03T09:52:10.361Z,103593.97
2019-01-03T09:54:40.254Z,103601.59
2019-01-03T09:57:10.409Z,103595.91
2019-01-03T09:59:40.311Z,103594.70
2019-01-03T10:02:10.251Z,103591.59
2019-01-03T10:04:40.298Z,103598.28
2019-01-03T10:07:10.319Z,103586.98
2019-01-03T10:09:40.308Z,103586.55
2019-01-03T10:12:10.263Z,103572.63
2019-01-03T10:14:40.426Z,103579.24
2019-01-03T10:17:10.240Z,103562.92
2019-01-03T10:19:40.497Z,103565.22
2019-01-03T10:22:10.396Z,103561.77
2019-01-03T10:24:40.297Z,103555.72
2019-01-03T10:27:10.304Z,103558.86
2019-01-03T10:29:40.315Z,103553.18
2019-01-03T10:32:10.289Z,103556.31
2019-01-03T10:34:40.266Z,103554.09
2019-01-03T10:37:10.447Z,103560.30
2019-01-03T10:39:40.228Z,103565.23
2019-01-03T10:42:10.297Z,103569.68
2019-01-03T10:44:40.377Z,103568.80
2019-01-03T10:47:10.345Z,103567.08
2019-01-03T10:49:40.271Z,103571.19
2019-01-03T10:52:10.388Z,103565.55
2019-01-03T10:54:40.296Z,103555.44
2019-01-03T10:57:10.262Z,103552.38
2019-01-03T10:59:40.587Z,103555.11
2019-01-03T11:02:10.303Z,103549.04
2019-01-03T11:04:40.279Z,103550.38
2019-01-03T11:07:10.435Z,103553.48
2019-01-03T11:09:40.336Z,103559.25
2019-01-03T11:12:10.341Z,103564.19
2019-01-03T11:14:40.469Z,103569.53
2019-01-03T11:17:10.325Z,103576.22
2019-01-03T11:19:40.319Z,103567.42
2019-01-03T11:22:12.760Z,103575.78
2019-01-03T11:24:42.169Z,103575.80
2019-01-03T11:27:11.579Z,103577.64
2019-01-03T11:29:41.061Z,103578.50
2019-01-03T11:32:10.464Z,103586.00
2019-01-03T11:34:40.321Z,103578.43
2019-01-03T11:37:10.420Z,103578.44
2019-01-03T11:39:40.330Z,103580.28
2019-01-03T11:42:10.329Z,103584.73
2019-01-03T11:44:40.519Z,103568.02
2019-01-03T11:47:10.340Z,103564.47
2019-01-03T11:49:40.332Z,103561.83
2019-01-03T11:52:10.721Z,103563.58
2019-01-03T11:54:40.366Z,103561.36
2019-01-03T11:57:10.380Z,103558.70
2019-01-03T11:59:40.434Z,103558.76
2019-01-03T12:02:10.543Z,103555.64
2019-01-03T12:04:40.405Z,103556.13
2019-01-03T12:07:10.410Z,103553.52
2019-01-03T12:09:40.397Z,103554.03
2019-01-03T12:12:10.411Z,103552.31
2019-01-03T12:14:40.554Z,103544.91
2019-01-03T12:17:10.427Z,103547.15
2019-01-03T12:19:40.432Z,103551.15
2019-01-03T12:22:10.767Z,103539.67
2019-01-03T12:24:40.407Z,103538.80
2019-01-03T12:27:10.580Z,103539.28
2019-01-03T12:29:40.447Z,103532.20
2019-01-03T12:32:10.435Z,103537.05
2019-01-03T12:34:40.430Z,103532.66
2019-01-03T12:37:10.626Z,103532.66
2019-01-03T12:39:40.441Z,103537.52
2019-01-03T12:42:10.402Z,103536.62
2019-01-03T12:44:40.474Z,103537.06
2019-01-03T12:47:10.438Z,103532.66
2019-01-03T12:49:40.448Z,103531.75
2019-01-03T12:52:12.226Z,103530.42
2019-01-03T12:54:41.966Z,103536.16
2019-01-03T12:57:11.340Z,103532.16
2019-01-03T12:59:40.930Z,103535.27
2019-01-03T13:02:10.466Z,103526.86
2019-01-03T13:04:40.490Z,103528.65
2019-01-03T13:07:10.787Z,103529.97
2019-01-03T13:09:40.454Z,103534.80
2019-01-03T13:12:10.469Z,103529.97
2019-01-03T13:14:40.701Z,103529.05
2019-01-03T13:17:10.528Z,103533.02
2019-01-03T13:19:40.488Z,103532.97
2019-01-03T13:22:10.607Z,103529.45
2019-01-03T13:24:40.529Z,103521.11
2019-01-03T13:27:10.490Z,103516.71
2019-01-03T13:29:40.596Z,103514.09
2019-01-03T13:32:10.552Z,103515.84
2019-01-03T13:34:40.524Z,103522.89
2019-01-03T13:37:10.671Z,103523.35
2019-01-03T13:39:40.529Z,103533.05
2019-01-03T13:42:10.532Z,103525.97
2019-01-03T13:44:40.745Z,103514.96
2019-01-03T13:47:10.578Z,103520.66
2019-01-03T13:49:40.582Z,103525.52
2019-01-03T13:52:10.701Z,103525.06
2019-01-03T13:54:40.876Z,103514.91
2019-01-03T13:57:10.579Z,103522.41
2019-01-03T13:59:40.659Z,103521.09
2019-01-03T14:02:10.589Z,103528.57
2019-01-03T14:04:40.603Z,103515.70
2019-01-03T14:07:10.759Z,103516.59
2019-01-03T14:09:40.777Z,103523.14
2019-01-03T14:12:10.583Z,103530.61
2019-01-03T14:14:40.652Z,103536.80
2019-01-03T14:17:10.575Z,103538.08
2019-01-03T14:19:41.708Z,103540.77
2019-01-03T14:22:11.149Z,103547.38
2019-01-03T14:24:41.569Z,103544.22
2019-01-03T14:27:11.059Z,103556.13
2019-01-03T14:29:40.861Z,103554.84
2019-01-03T14:32:10.607Z,103555.69
2019-01-03T14:34:40.637Z,103556.92
2019-01-03T14:37:10.830Z,103563.48
2019-01-03T14:39:40.627Z,103561.31
2019-01-03T14:42:10.654Z,103562.58
2019-01-03T14:44:40.719Z,103569.61
2019-01-03T14:47:10.714Z,103567.80
2019-01-03T14:49:40.657Z,103568.27
2019-01-03T14:52:11.022Z,103576.20
2019-01-03T14:54:40.639Z,103568.22
2019-01-03T14:57:10.703Z,103569.06
2019-01-03T14:59:40.818Z,103567.67
2019-01-03T15:02:10.699Z,103564.20
2019-01-03T15:04:40.680Z,103572.19
2019-01-03T15:07:10.715Z,103569.95
2019-01-03T15:09:40.667Z,103578.73
2019-01-03T15:12:10.828Z,103584.45
2019-01-03T15:14:40.802Z,103592.36
2019-01-03T15:17:10.731Z,103593.31
2019-01-03T15:19:40.722Z,103591.94
2019-01-03T15:22:10.779Z,103590.53
2019-01-03T15:24:40.775Z,103593.59
2019-01-03T15:27:10.724Z,103596.26
2019-01-03T15:29:40.772Z,103601.54
2019-01-03T15:32:10.712Z,103601.55
2019-01-03T15:34:40.765Z,103600.57
2019-01-03T15:37:10.789Z,103605.83
2019-01-03T15:39:40.764Z,103601.82
2019-01-03T15:42:10.844Z,103610.65
2019-01-03T15:44:40.873Z,103610.63
2019-01-03T15:47:10.758Z,103618.88
2019-01-03T15:49:40.782Z,103613.98
2019-01-03T15:52:10.821Z,103616.19
2019-01-03T15:54:40.761Z,103620.13
2019-01-03T15:57:10.801Z,103627.56
2019-01-03T15:59:40.945Z,103623.65
2019-01-03T16:02:10.812Z,103618.28
2019-01-03T16:04:41.288Z,103628.44
2019-01-03T16:07:10.928Z,103632.42
2019-01-03T16:09:40.810Z,103631.11
2019-01-03T16:12:10.790Z,103624.08
2019-01-03T16:14:40.866Z,103635.89
2019-01-03T16:17:10.926Z,103619.92
2019-01-03T16:19:40.795Z,103638.44
2019-01-03T16:22:11.020Z,103639.73
2019-01-03T16:24:40.855Z,103641.53
2019-01-03T16:27:10.845Z,103643.36
2019-01-03T16:29:41.007Z,103653.41
2019-01-03T16:32:10.878Z,103644.08
2019-01-03T16:34:40.867Z,103647.13
2019-01-03T16:37:11.099Z,103650.22
2019-01-03T16:39:40.905Z,103649.30
2019-01-03T16:42:10.892Z,103652.44
2019-01-03T16:44:41.016Z,103654.16
2019-01-03T16:47:10.906Z,103644.44
2019-01-03T16:49:40.918Z,103643.01
2019-01-03T16:52:11.118Z,103639.82
2019-01-03T16:54:40.921Z,103628.81
2019-01-03T16:57:11.163Z,103631.83
2019-01-03T16:59:41.009Z,103628.30
2019-01-03T17:02:10.922Z,103632.66
2019-01-03T17:04:41.020Z,103630.48
2019-01-03T17:07:11.066Z,103634.89
2019-01-03T17:09:41.773Z,103636.27
2019-01-03T17:12:11.197Z,103633.13
2019-01-03T17:14:41.008Z,103635.41
2019-01-03T17:17:10.947Z,103636.22
2019-01-03T17:19:41.192Z,103638.39
2019-01-03T17:22:11.077Z,103639.70
2019-01-03T17:24:40.980Z,103640.54
2019-01-03T17:27:10.975Z,103639.54
2019-01-03T17:29:41.275Z,103643.10
2019-01-03T17:32:10.958Z,103643.55
2019-01-03T17:34:40.991Z,103658.41
2019-01-03T17:37:11.112Z,103650.08
2019-01-03T17:39:40.966Z,103647.79
2019-01-03T17:42:11.025Z,103644.66
2019-01-03T17:44:41.145Z,103632.89
2019-01-03T17:47:11.038Z,103644.30
2019-01-03T17:49:41.056Z,103647.19
2019-01-03T17:52:11.225Z,103640.19
2019-01-03T17:54:41.048Z,103641.12
2019-01-03T17:57:11.033Z,103639.30
2019-01-03T17:59:41.368Z,103642.88
2019-01-03T18:02:11.090Z,103626.09
2019-01-03T18:04:41.110Z,103653.47
2019-01-03T18:07:11.151Z,103643.72
2019-01-03T18:09:41.123Z,103633.52
2019-01-03T18:12:11.057Z,103653.75
2019-01-03T18:14:41.235Z,103654.19
2019-01-03T18:17:11.083Z,103649.00
2019-01-03T18:19:41.110Z,103641.00
2019-01-03T18:22:11.249Z,103641.39
2019-01-03T18:24:41.121Z,103645.76
2019-01-03T18:27:11.118Z,103628.48
2019-01-03T18:29:41.156Z,103641.78
2019-01-03T18:32:11.099Z,103636.92
2019-01-03T18:34:41.099Z,103641.70
2019-01-03T18:37:11.202Z,103652.23
2019-01-03T18:39:41.095Z,103654.45
2019-01-03T18:42:11.133Z,103661.44
2019-01-03T18:44:41.149Z,103668.02
2019-01-03T18:47:11.129Z,103673.71
2019-01-03T18:49:41.146Z,103681.52
2019-01-03T18:52:11.593Z,103677.50
2019-01-03T18:54:41.227Z,103669.61
2019-01-03T18:57:11.202Z,103678.95
2019-01-03T18:59:41.326Z,103671.50
2019-01-03T19:02:11.185Z,103691.73
2019-01-03T19:04:41.230Z,103692.52
2019-01-03T19:07:11.285Z,103686.20
2019-01-03T19:09:41.257Z,103676.48
2019-01-03T19:12:11.259Z,103680.33
2019-01-03T19:14:41.389Z,103676.97
2019-01-03T19:17:11.259Z,103674.85
2019-01-03T19:19:41.265Z,103672.74
2019-01-03T19:22:11.384Z,103671.45
2019-01-03T19:24:41.304Z,103661.34
2019-01-03T19:27:11.268Z,103674.39
2019-01-03T19:29:41.474Z,103673.84
2019-01-03T19:32:11.288Z,103676.95
2019-01-03T19:34:41.270Z,103671.30
2019-01-03T19:37:11.383Z,103674.41
2019-01-03T19:39:41.259Z,103656.33
2019-01-03T19:42:11.321Z,103669.05
2019-01-03T19:44:41.354Z,103679.92
2019-01-03T19:47:11.314Z,103667.11
2019-01-03T19:49:41.317Z,103681.64
2019-01-03T19:52:11.371Z,103680.78
2019-01-03T19:54:41.363Z,103675.58
2019-01-03T19:57:11.329Z,103679.63
2019-01-03T19:59:41.425Z,103674.78
2019-01-03T20:02:11.321Z,103685.41
2019-01-03T20:04:41.342Z,103681.45
2019-01-03T20:07:11.402Z,103681.49
2019-01-03T20:09:41.334Z,103679.76
2019-01-03T20:12:11.349Z,103685.47
2019-01-03T20:14:41.509Z,103684.73
2019-01-03T20:17:11.410Z,103679.88
2019-01-03T20:19:41.368Z,103673.81
2019-01-03T20:22:11.489Z,103665.89
2019-01-03T20:24:41.418Z,103668.95
2019-01-03T20:27:11.403Z,103669.77
2019-01-03T20:29:41.456Z,103658.42
2019-01-03T20:32:11.846Z,103658.79
2019-01-03T20:34:41.390Z,103662.38
2019-01-03T20:37:11.560Z,103661.07
2019-01-03T20:39:41.389Z,103671.16
2019-01-03T20:42:11.404Z,103665.94
2019-01-03T20:44:41.519Z,103664.09
2019-01-03T20:47:11.444Z,103667.63
2019-01-03T20:49:41.444Z,103666.30
2019-01-03T20:52:11.554Z,103661.05
2019-01-03T20:54:41.454Z,103668.52
2019-01-03T20:57:11.567Z,103666.73
2019-01-03T20:59:41.585Z,103661.42
2019-01-03T21:02:11.445Z,103659.21
2019-01-03T21:04:41.723Z,103657.47
2019-01-03T21:07:11.532Z,103650.66
2019-01-03T21:09:41.487Z,103652.47
2019-01-03T21:12:11.468Z,103648.11
2019-01-03T21:14:41.585Z,103640.66
2019-01-03T21:17:11.445Z,103645.47
2019-01-03T21:19:41.485Z,103650.69
2019-01-03T21:22:11.606Z,103651.20
2019-01-03T21:24:41.452Z,103639.32
2019-01-03T21:27:11.439Z,103636.27
2019-01-03T21:29:41.600Z,103642.45
2019-01-03T21:32:11.476Z,103630.48
2019-01-03T21:34:41.628Z,103636.31
2019-01-03T21:37:11.551Z,103626.26
2019-01-03T21:39:41.563Z,103632.81
2019-01-03T21:42:11.523Z,103616.11
2019-01-03T21:44:41.578Z,103610.81
2019-01-03T21:47:11.492Z,103601.16
2019-01-03T21:49:41.562Z,103599.34
2019-01-03T21:52:11.596Z,103599.84
2019-01-03T21:54:41.487Z,103597.26
2019-01-03T21:57:11.503Z,103590.34
2019-01-03T21:59:41.652Z,103590.75
2019-01-03T22:02:11.551Z,103592.00
2019-01-03T22:04:41.550Z,103592.99
2019-01-03T22:07:11.651Z,103588.58
2019-01-03T22:09:41.877Z,103588.86
2019-01-03T22:12:11.534Z,103580.62
2019-01-03T22:14:41.658Z,103583.39
2019-01-03T22:17:11.545Z,103585.20
2019-01-03T22:19:41.557Z,103588.69
2019-01-03T22:22:11.629Z,103575.06
2019-01-03T22:24:41.614Z,103573.38
2019-01-03T22:27:11.520Z,103559.73
2019-01-03T22:29:41.604Z,103557.05
2019-01-03T22:32:11.585Z,103558.94
2019-01-03T22:34:41.599Z,103558.02
2019-01-03T22:37:11.806Z,103568.96
2019-01-03T22:39:41.635Z,103564.25
2019-01-03T22:42:11.632Z,103567.36
2019-01-03T22:44:41.720Z,103571.41
2019-01-03T22:47:11.616Z,103575.37
2019-01-03T22:49:41.593Z,103577.10
2019-01-03T22:52:11.772Z,103581.89
2019-01-03T22:54:41.673Z,103583.41
2019-01-03T22:57:11.708Z,103583.48
2019-01-03T22:59:41.700Z,103576.81
2019-01-03T23:02:11.641Z,103572.83
2019-01-03T23:04:41.665Z,103570.09
2019-01-03T23:07:11.779Z,103567.98
2019-01-03T23:09:41.650Z,103566.75
2019-01-03T23:12:11.995Z,103565.87
2019-01-03T23:14:41.783Z,103565.87
2019-01-03T23:17:11.673Z,103562.81
2019-01-03T23:19:41.678Z,103562.78
2019-01-03T23:22:11.716Z,103554.92
2019-01-03T23:24:41.651Z,103539.57
2019-01-03T23:27:11.687Z,103550.25
2019-01-03T23:29:41.785Z,103544.98
2019-01-03T23:32:11.695Z,103543.22
2019-01-03T23:34:41.681Z,103528.70
2019-01-03T23:37:11.763Z,103529.62
2019-01-03T23:39:41.675Z,103534.43
2019-01-03T23:42:11.713Z,103525.27
2019-01-03T23:45:11.834Z,103519.16
2019-01-03T23:47:41.721Z,103518.36
2019-01-03T23:50:13.248Z,103522.77
2019-01-03T23:52:42.761Z,103510.87
2019-01-03T23:55:12.271Z,103515.31
2019-01-03T23:57:41.827Z,103507.80
